Avonlea, Canada
Current Conditions -  °F | °C
As of 7:00 AM on Wednesday 26 Nov 2014 (Local Time) from CYQR Reporting Station
Clear Clear  
Wind Chill: -16°   Ceiling: Unl
Heat Index: -4°   Visibility: 15mi
Dew Point: -8°   Wind: 6mph
Humidity: 85%   Direction: 40°NE
Pressure: 30.34"   Gusts: NA
Location:  50.02°N, 105.07°W
Report Text: CYQR 261300Z 04005KT 15SM SKC M20/M22 A3034 RMK SLP330
Loading
Personal Weather Stations






























Interactive Weather Map New forecast layout! Learn more

10-Day Weather Forecast

Advertisements
Track Severe Weather on mobile